sensor_id;sensor_type;location;lat;lon;timestamp;P1;durP1;ratioP1;P2;durP2;ratioP2
7919;SDS011;18778;47.610;9.776;2023-10-13T00:00:29;4.80;;;3.00;;
7919;SDS011;18778;47.610;9.776;2023-10-13T00:02:58;6.93;;;3.30;;
7919;SDS011;18778;47.610;9.776;2023-10-13T00:05:27;7.33;;;2.90;;
7919;SDS011;18778;47.610;9.776;2023-10-13T00:07:55;10.40;;;3.33;;
7919;SDS011;18778;47.610;9.776;2023-10-13T00:10:25;5.13;;;3.20;;
7919;SDS011;18778;47.610;9.776;2023-10-13T00:13:00;8.17;;;3.40;;
7919;SDS011;18778;47.610;9.776;2023-10-13T00:18:18;7.17;;;3.40;;
7919;SDS011;18778;47.610;9.776;2023-10-13T00:20:44;6.37;;;3.47;;
7919;SDS011;18778;47.610;9.776;2023-10-13T00:23:14;6.30;;;3.50;;
7919;SDS011;18778;47.610;9.776;2023-10-13T00:25:41;5.23;;;3.27;;
7919;SDS011;18778;47.610;9.776;2023-10-13T00:28:15;5.17;;;3.70;;
7919;SDS011;18778;47.610;9.776;2023-10-13T00:30:48;6.30;;;3.70;;
7919;SDS011;18778;47.610;9.776;2023-10-13T00:33:16;5.57;;;3.23;;
7919;SDS011;18778;47.610;9.776;2023-10-13T00:35:45;8.27;;;3.43;;
7919;SDS011;18778;47.610;9.776;2023-10-13T00:38:12;7.23;;;3.90;;
7919;SDS011;18778;47.610;9.776;2023-10-13T00:40:38;9.37;;;3.73;;
7919;SDS011;18778;47.610;9.776;2023-10-13T00:43:05;8.03;;;3.27;;
7919;SDS011;18778;47.610;9.776;2023-10-13T00:45:43;7.77;;;3.53;;
7919;SDS011;18778;47.610;9.776;2023-10-13T00:48:13;4.03;;;3.43;;
7919;SDS011;18778;47.610;9.776;2023-10-13T00:50:40;6.93;;;3.53;;
7919;SDS011;18778;47.610;9.776;2023-10-13T00:53:07;7.77;;;3.60;;
7919;SDS011;18778;47.610;9.776;2023-10-13T00:55:34;8.33;;;3.67;;
7919;SDS011;18778;47.610;9.776;2023-10-13T00:57:59;10.00;;;4.20;;
7919;SDS011;18778;47.610;9.776;2023-10-13T01:00:29;7.33;;;3.60;;
7919;SDS011;18778;47.610;9.776;2023-10-13T01:02:55;7.83;;;4.10;;
7919;SDS011;18778;47.610;9.776;2023-10-13T01:05:24;3.43;;;2.70;;
7919;SDS011;18778;47.610;9.776;2023-10-13T01:07:51;7.87;;;3.50;;
7919;SDS011;18778;47.610;9.776;2023-10-13T01:10:20;6.30;;;3.43;;
7919;SDS011;18778;47.610;9.776;2023-10-13T01:12:51;5.40;;;3.23;;
7919;SDS011;18778;47.610;9.776;2023-10-13T01:15:17;5.33;;;3.30;;
7919;SDS011;18778;47.610;9.776;2023-10-13T01:17:47;6.23;;;3.00;;
7919;SDS011;18778;47.610;9.776;2023-10-13T01:20:16;5.07;;;3.20;;
7919;SDS011;18778;47.610;9.776;2023-10-13T01:22:51;7.33;;;2.93;;
7919;SDS011;18778;47.610;9.776;2023-10-13T01:25:22;6.30;;;3.13;;
7919;SDS011;18778;47.610;9.776;2023-10-13T01:27:51;7.37;;;3.10;;
7919;SDS011;18778;47.610;9.776;2023-10-13T01:30:17;6.73;;;3.00;;
7919;SDS011;18778;47.610;9.776;2023-10-13T01:32:48;5.67;;;3.33;;
7919;SDS011;18778;47.610;9.776;2023-10-13T01:35:16;4.77;;;3.30;;
7919;SDS011;18778;47.610;9.776;2023-10-13T01:37:44;4.87;;;3.30;;
7919;SDS011;18778;47.610;9.776;2023-10-13T01:40:10;4.50;;;3.00;;
7919;SDS011;18778;47.610;9.776;2023-10-13T01:42:38;6.63;;;3.00;;
7919;SDS011;18778;47.610;9.776;2023-10-13T01:45:04;6.60;;;3.20;;
7919;SDS011;18778;47.610;9.776;2023-10-13T01:47:31;8.03;;;3.23;;
7919;SDS011;18778;47.610;9.776;2023-10-13T01:49:58;5.63;;;3.30;;
7919;SDS011;18778;47.610;9.776;2023-10-13T01:52:32;6.30;;;3.70;;
7919;SDS011;18778;47.610;9.776;2023-10-13T01:54:57;5.03;;;3.30;;
7919;SDS011;18778;47.610;9.776;2023-10-13T01:57:26;8.20;;;3.57;;
7919;SDS011;18778;47.610;9.776;2023-10-13T01:59:53;6.10;;;3.40;;
7919;SDS011;18778;47.610;9.776;2023-10-13T02:02:21;5.53;;;3.47;;
7919;SDS011;18778;47.610;9.776;2023-10-13T02:04:56;4.73;;;3.23;;
7919;SDS011;18778;47.610;9.776;2023-10-13T02:07:22;4.60;;;2.97;;
7919;SDS011;18778;47.610;9.776;2023-10-13T02:09:54;7.53;;;3.10;;
7919;SDS011;18778;47.610;9.776;2023-10-13T02:12:21;8.57;;;3.37;;
7919;SDS011;18778;47.610;9.776;2023-10-13T02:14:53;10.60;;;3.73;;
7919;SDS011;18778;47.610;9.776;2023-10-13T02:17:19;7.70;;;3.63;;
7919;SDS011;18778;47.610;9.776;2023-10-13T02:19:48;5.63;;;3.00;;
7919;SDS011;18778;47.610;9.776;2023-10-13T02:22:14;4.50;;;3.00;;
7919;SDS011;18778;47.610;9.776;2023-10-13T02:24:52;8.83;;;3.30;;
7919;SDS011;18778;47.610;9.776;2023-10-13T02:27:18;9.03;;;3.23;;
7919;SDS011;18778;47.610;9.776;2023-10-13T02:29:49;7.23;;;3.17;;
7919;SDS011;18778;47.610;9.776;2023-10-13T02:32:15;11.33;;;3.67;;
7919;SDS011;18778;47.610;9.776;2023-10-13T02:34:46;7.00;;;3.17;;
7919;SDS011;18778;47.610;9.776;2023-10-13T02:37:12;7.77;;;3.77;;
7919;SDS011;18778;47.610;9.776;2023-10-13T02:39:38;6.63;;;3.00;;
7919;SDS011;18778;47.610;9.776;2023-10-13T02:42:07;5.07;;;3.00;;
7919;SDS011;18778;47.610;9.776;2023-10-13T02:44:34;4.10;;;2.90;;
7919;SDS011;18778;47.610;9.776;2023-10-13T02:47:02;4.23;;;2.83;;
7919;SDS011;18778;47.610;9.776;2023-10-13T02:49:39;6.93;;;3.30;;
7919;SDS011;18778;47.610;9.776;2023-10-13T02:52:08;10.37;;;3.00;;
7919;SDS011;18778;47.610;9.776;2023-10-13T02:54:35;6.17;;;2.90;;
7919;SDS011;18778;47.610;9.776;2023-10-13T02:57:16;6.83;;;2.83;;
7919;SDS011;18778;47.610;9.776;2023-10-13T02:59:42;4.93;;;3.17;;
7919;SDS011;18778;47.610;9.776;2023-10-13T03:02:12;7.20;;;2.80;;
7919;SDS011;18778;47.610;9.776;2023-10-13T03:04:53;5.53;;;2.73;;
7919;SDS011;18778;47.610;9.776;2023-10-13T03:07:24;4.83;;;3.50;;
7919;SDS011;18778;47.610;9.776;2023-10-13T03:09:56;6.03;;;3.23;;
7919;SDS011;18778;47.610;9.776;2023-10-13T03:12:25;7.03;;;3.20;;
7919;SDS011;18778;47.610;9.776;2023-10-13T03:14:51;6.30;;;3.00;;
7919;SDS011;18778;47.610;9.776;2023-10-13T03:17:20;5.07;;;3.07;;
7919;SDS011;18778;47.610;9.776;2023-10-13T03:19:58;3.67;;;2.47;;
7919;SDS011;18778;47.610;9.776;2023-10-13T03:22:25;5.87;;;3.07;;
7919;SDS011;18778;47.610;9.776;2023-10-13T03:25:00;5.63;;;3.13;;
7919;SDS011;18778;47.610;9.776;2023-10-13T03:27:34;3.23;;;2.57;;
7919;SDS011;18778;47.610;9.776;2023-10-13T03:30:15;5.60;;;3.17;;
7919;SDS011;18778;47.610;9.776;2023-10-13T03:32:41;5.90;;;2.70;;
7919;SDS011;18778;47.610;9.776;2023-10-13T03:35:19;11.93;;;3.80;;
7919;SDS011;18778;47.610;9.776;2023-10-13T03:37:56;8.13;;;3.77;;
7919;SDS011;18778;47.610;9.776;2023-10-13T03:40:22;5.73;;;2.73;;
7919;SDS011;18778;47.610;9.776;2023-10-13T03:42:51;5.77;;;3.10;;
7919;SDS011;18778;47.610;9.776;2023-10-13T03:45:34;6.03;;;3.07;;
7919;SDS011;18778;47.610;9.776;2023-10-13T03:48:07;4.37;;;2.83;;
7919;SDS011;18778;47.610;9.776;2023-10-13T03:50:36;4.07;;;3.20;;
7919;SDS011;18778;47.610;9.776;2023-10-13T03:53:11;5.57;;;3.00;;
7919;SDS011;18778;47.610;9.776;2023-10-13T03:55:38;5.20;;;3.07;;
7919;SDS011;18778;47.610;9.776;2023-10-13T03:58:04;7.07;;;2.83;;
7919;SDS011;18778;47.610;9.776;2023-10-13T04:00:31;6.03;;;2.80;;
7919;SDS011;18778;47.610;9.776;2023-10-13T04:02:57;4.60;;;3.03;;
7919;SDS011;18778;47.610;9.776;2023-10-13T04:05:40;4.83;;;3.10;;
7919;SDS011;18778;47.610;9.776;2023-10-13T04:08:26;6.83;;;2.93;;
7919;SDS011;18778;47.610;9.776;2023-10-13T04:10:52;5.63;;;2.93;;
7919;SDS011;18778;47.610;9.776;2023-10-13T04:13:19;5.30;;;3.30;;
7919;SDS011;18778;47.610;9.776;2023-10-13T04:16:04;5.17;;;3.10;;
7919;SDS011;18778;47.610;9.776;2023-10-13T04:18:47;3.67;;;2.77;;
7919;SDS011;18778;47.610;9.776;2023-10-13T04:21:19;7.30;;;2.97;;
7919;SDS011;18778;47.610;9.776;2023-10-13T04:24:04;4.30;;;2.80;;
7919;SDS011;18778;47.610;9.776;2023-10-13T04:26:34;5.37;;;3.00;;
7919;SDS011;18778;47.610;9.776;2023-10-13T04:29:09;5.47;;;3.03;;
7919;SDS011;18778;47.610;9.776;2023-10-13T04:31:55;5.73;;;3.07;;
7919;SDS011;18778;47.610;9.776;2023-10-13T04:34:25;3.67;;;2.80;;
7919;SDS011;18778;47.610;9.776;2023-10-13T04:36:53;6.93;;;3.17;;
7919;SDS011;18778;47.610;9.776;2023-10-13T04:39:36;7.53;;;3.50;;
7919;SDS011;18778;47.610;9.776;2023-10-13T04:42:03;4.73;;;3.23;;
7919;SDS011;18778;47.610;9.776;2023-10-13T04:45:01;6.80;;;3.50;;
7919;SDS011;18778;47.610;9.776;2023-10-13T04:47:41;7.13;;;3.23;;
7919;SDS011;18778;47.610;9.776;2023-10-13T04:50:12;6.07;;;3.07;;
7919;SDS011;18778;47.610;9.776;2023-10-13T04:52:47;5.17;;;3.20;;
7919;SDS011;18778;47.610;9.776;2023-10-13T04:55:26;5.63;;;3.30;;
7919;SDS011;18778;47.610;9.776;2023-10-13T04:58:11;6.67;;;3.33;;
7919;SDS011;18778;47.610;9.776;2023-10-13T05:01:03;4.63;;;3.40;;
7919;SDS011;18778;47.610;9.776;2023-10-13T05:03:48;5.33;;;3.83;;
7919;SDS011;18778;47.610;9.776;2023-10-13T05:06:33;4.70;;;3.20;;
7919;SDS011;18778;47.610;9.776;2023-10-13T05:09:13;6.03;;;3.10;;
7919;SDS011;18778;47.610;9.776;2023-10-13T05:11:58;8.87;;;3.57;;
7919;SDS011;18778;47.610;9.776;2023-10-13T05:14:42;7.30;;;4.73;;
7919;SDS011;18778;47.610;9.776;2023-10-13T05:17:26;8.47;;;3.93;;
7919;SDS011;18778;47.610;9.776;2023-10-13T05:20:27;5.43;;;3.67;;
7919;SDS011;18778;47.610;9.776;2023-10-13T05:23:11;7.00;;;3.40;;
7919;SDS011;18778;47.610;9.776;2023-10-13T05:25:56;6.90;;;3.77;;
7919;SDS011;18778;47.610;9.776;2023-10-13T05:28:48;6.97;;;3.70;;
7919;SDS011;18778;47.610;9.776;2023-10-13T05:31:32;5.53;;;3.40;;
7919;SDS011;18778;47.610;9.776;2023-10-13T05:34:16;7.70;;;3.63;;
7919;SDS011;18778;47.610;9.776;2023-10-13T05:37:00;5.30;;;3.50;;
7919;SDS011;18778;47.610;9.776;2023-10-13T05:39:44;10.43;;;3.47;;
7919;SDS011;18778;47.610;9.776;2023-10-13T05:42:28;4.83;;;3.20;;
7919;SDS011;18778;47.610;9.776;2023-10-13T05:45:13;5.57;;;3.47;;
7919;SDS011;18778;47.610;9.776;2023-10-13T05:47:38;6.37;;;3.10;;
7919;SDS011;18778;47.610;9.776;2023-10-13T05:50:07;6.07;;;3.30;;
7919;SDS011;18778;47.610;9.776;2023-10-13T05:52:45;5.90;;;3.23;;
7919;SDS011;18778;47.610;9.776;2023-10-13T05:55:32;7.80;;;3.53;;
7919;SDS011;18778;47.610;9.776;2023-10-13T05:58:16;6.07;;;3.20;;
7919;SDS011;18778;47.610;9.776;2023-10-13T06:01:00;13.93;;;4.63;;
7919;SDS011;18778;47.610;9.776;2023-10-13T06:03:44;7.63;;;2.90;;
7919;SDS011;18778;47.610;9.776;2023-10-13T06:06:29;4.27;;;2.90;;
7919;SDS011;18778;47.610;9.776;2023-10-13T06:09:13;9.00;;;3.23;;
7919;SDS011;18778;47.610;9.776;2023-10-13T06:11:57;4.93;;;2.90;;
7919;SDS011;18778;47.610;9.776;2023-10-13T06:14:45;6.20;;;3.00;;
7919;SDS011;18778;47.610;9.776;2023-10-13T06:17:29;7.83;;;3.53;;
7919;SDS011;18778;47.610;9.776;2023-10-13T06:20:13;5.27;;;2.97;;
7919;SDS011;18778;47.610;9.776;2023-10-13T06:22:57;8.90;;;3.13;;
7919;SDS011;18778;47.610;9.776;2023-10-13T06:25:42;7.37;;;2.83;;
7919;SDS011;18778;47.610;9.776;2023-10-13T06:28:26;6.13;;;3.10;;
7919;SDS011;18778;47.610;9.776;2023-10-13T06:31:07;7.53;;;3.50;;
7919;SDS011;18778;47.610;9.776;2023-10-13T06:33:37;6.40;;;3.20;;
7919;SDS011;18778;47.610;9.776;2023-10-13T06:36:09;7.83;;;3.40;;
7919;SDS011;18778;47.610;9.776;2023-10-13T06:38:35;7.80;;;2.97;;
7919;SDS011;18778;47.610;9.776;2023-10-13T06:41:04;5.97;;;2.90;;
7919;SDS011;18778;47.610;9.776;2023-10-13T06:43:37;4.83;;;3.30;;
7919;SDS011;18778;47.610;9.776;2023-10-13T06:46:08;6.63;;;3.80;;
7919;SDS011;18778;47.610;9.776;2023-10-13T06:48:39;6.03;;;3.73;;
7919;SDS011;18778;47.610;9.776;2023-10-13T06:51:05;8.00;;;3.43;;
7919;SDS011;18778;47.610;9.776;2023-10-13T06:53:43;4.93;;;3.07;;
7919;SDS011;18778;47.610;9.776;2023-10-13T06:56:12;7.10;;;4.00;;
7919;SDS011;18778;47.610;9.776;2023-10-13T06:58:54;6.23;;;3.70;;
7919;SDS011;18778;47.610;9.776;2023-10-13T07:01:27;7.70;;;3.30;;
7919;SDS011;18778;47.610;9.776;2023-10-13T07:03:53;7.40;;;3.37;;
7919;SDS011;18778;47.610;9.776;2023-10-13T07:06:20;5.63;;;3.50;;
7919;SDS011;18778;47.610;9.776;2023-10-13T07:08:48;9.37;;;3.20;;
7919;SDS011;18778;47.610;9.776;2023-10-13T07:11:29;7.20;;;3.30;;
7919;SDS011;18778;47.610;9.776;2023-10-13T07:14:07;7.90;;;3.30;;
7919;SDS011;18778;47.610;9.776;2023-10-13T07:16:41;6.97;;;3.00;;
7919;SDS011;18778;47.610;9.776;2023-10-13T07:19:11;4.17;;;3.37;;
7919;SDS011;18778;47.610;9.776;2023-10-13T07:21:43;9.03;;;3.27;;
7919;SDS011;18778;47.610;9.776;2023-10-13T07:24:11;5.23;;;3.30;;
7919;SDS011;18778;47.610;9.776;2023-10-13T07:26:37;11.97;;;3.40;;
7919;SDS011;18778;47.610;9.776;2023-10-13T07:29:07;5.83;;;3.03;;
7919;SDS011;18778;47.610;9.776;2023-10-13T07:31:34;7.27;;;2.83;;
7919;SDS011;18778;47.610;9.776;2023-10-13T07:34:02;6.10;;;2.83;;
7919;SDS011;18778;47.610;9.776;2023-10-13T07:36:37;3.83;;;2.63;;
7919;SDS011;18778;47.610;9.776;2023-10-13T07:39:08;7.40;;;3.17;;
7919;SDS011;18778;47.610;9.776;2023-10-13T07:41:54;6.50;;;2.80;;
7919;SDS011;18778;47.610;9.776;2023-10-13T07:44:23;4.87;;;2.90;;
7919;SDS011;18778;47.610;9.776;2023-10-13T07:46:56;9.23;;;3.00;;
7919;SDS011;18778;47.610;9.776;2023-10-13T07:49:28;5.37;;;2.90;;
7919;SDS011;18778;47.610;9.776;2023-10-13T07:52:01;6.67;;;2.90;;
7919;SDS011;18778;47.610;9.776;2023-10-13T07:54:49;5.23;;;2.77;;
7919;SDS011;18778;47.610;9.776;2023-10-13T07:57:28;4.63;;;2.27;;
7919;SDS011;18778;47.610;9.776;2023-10-13T07:59:57;4.73;;;2.87;;
7919;SDS011;18778;47.610;9.776;2023-10-13T08:02:58;6.20;;;2.43;;
7919;SDS011;18778;47.610;9.776;2023-10-13T08:05:42;4.83;;;2.60;;
7919;SDS011;18778;47.610;9.776;2023-10-13T08:08:23;3.47;;;2.07;;
7919;SDS011;18778;47.610;9.776;2023-10-13T08:11:00;6.83;;;2.57;;
7919;SDS011;18778;47.610;9.776;2023-10-13T08:13:55;5.67;;;2.90;;
7919;SDS011;18778;47.610;9.776;2023-10-13T08:16:24;8.67;;;2.77;;
7919;SDS011;18778;47.610;9.776;2023-10-13T08:18:55;6.17;;;2.63;;
7919;SDS011;18778;47.610;9.776;2023-10-13T08:21:21;4.43;;;2.77;;
7919;SDS011;18778;47.610;9.776;2023-10-13T08:23:50;6.50;;;2.37;;
7919;SDS011;18778;47.610;9.776;2023-10-13T08:26:18;5.27;;;2.67;;
7919;SDS011;18778;47.610;9.776;2023-10-13T08:29:03;5.60;;;2.47;;
7919;SDS011;18778;47.610;9.776;2023-10-13T08:31:48;4.23;;;2.50;;
7919;SDS011;18778;47.610;9.776;2023-10-13T08:34:34;3.37;;;2.03;;
7919;SDS011;18778;47.610;9.776;2023-10-13T08:37:09;5.43;;;2.67;;
7919;SDS011;18778;47.610;9.776;2023-10-13T08:39:58;8.97;;;3.00;;
7919;SDS011;18778;47.610;9.776;2023-10-13T08:47:59;4.80;;;2.57;;
7919;SDS011;18778;47.610;9.776;2023-10-13T08:50:43;4.87;;;2.43;;
7919;SDS011;18778;47.610;9.776;2023-10-13T08:53:26;2.93;;;2.50;;
7919;SDS011;18778;47.610;9.776;2023-10-13T08:55:56;8.20;;;2.60;;
7919;SDS011;18778;47.610;9.776;2023-10-13T08:58:50;4.20;;;2.33;;
7919;SDS011;18778;47.610;9.776;2023-10-13T09:01:19;5.10;;;2.30;;
7919;SDS011;18778;47.610;9.776;2023-10-13T09:04:08;6.70;;;3.07;;
7919;SDS011;18778;47.610;9.776;2023-10-13T09:06:53;4.87;;;2.50;;
7919;SDS011;18778;47.610;9.776;2023-10-13T09:12:14;8.30;;;2.70;;
7919;SDS011;18778;47.610;9.776;2023-10-13T09:14:55;7.03;;;2.70;;
7919;SDS011;18778;47.610;9.776;2023-10-13T09:17:29;6.40;;;3.03;;
7919;SDS011;18778;47.610;9.776;2023-10-13T09:20:05;7.50;;;2.63;;
7919;SDS011;18778;47.610;9.776;2023-10-13T09:22:46;5.23;;;2.60;;
7919;SDS011;18778;47.610;9.776;2023-10-13T09:25:37;8.00;;;2.47;;
7919;SDS011;18778;47.610;9.776;2023-10-13T09:28:11;4.03;;;2.50;;
7919;SDS011;18778;47.610;9.776;2023-10-13T09:30:50;9.80;;;2.60;;
7919;SDS011;18778;47.610;9.776;2023-10-13T09:33:30;6.47;;;2.70;;
7919;SDS011;18778;47.610;9.776;2023-10-13T09:36:02;4.77;;;2.20;;
7919;SDS011;18778;47.610;9.776;2023-10-13T09:38:32;7.40;;;2.27;;
7919;SDS011;18778;47.610;9.776;2023-10-13T09:40:58;3.60;;;2.53;;
7919;SDS011;18778;47.610;9.776;2023-10-13T09:43:34;4.47;;;2.50;;
7919;SDS011;18778;47.610;9.776;2023-10-13T09:46:02;6.23;;;2.60;;
7919;SDS011;18778;47.610;9.776;2023-10-13T09:48:46;5.13;;;2.40;;
7919;SDS011;18778;47.610;9.776;2023-10-13T09:51:15;5.70;;;2.30;;
7919;SDS011;18778;47.610;9.776;2023-10-13T09:54:50;7.07;;;2.70;;
7919;SDS011;18778;47.610;9.776;2023-10-13T09:56:53;5.67;;;2.73;;
7919;SDS011;18778;47.610;9.776;2023-10-13T10:02:05;6.73;;;2.60;;
7919;SDS011;18778;47.610;9.776;2023-10-13T10:04:35;5.63;;;2.50;;
7919;SDS011;18778;47.610;9.776;2023-10-13T10:07:23;6.90;;;2.50;;
7919;SDS011;18778;47.610;9.776;2023-10-13T10:09:57;4.33;;;2.50;;
7919;SDS011;18778;47.610;9.776;2023-10-13T10:17:58;6.23;;;2.20;;
7919;SDS011;18778;47.610;9.776;2023-10-13T10:20:35;6.20;;;2.50;;
7919;SDS011;18778;47.610;9.776;2023-10-13T10:23:07;9.83;;;2.70;;
7919;SDS011;18778;47.610;9.776;2023-10-13T10:25:47;5.87;;;2.30;;
7919;SDS011;18778;47.610;9.776;2023-10-13T10:28:16;6.77;;;2.40;;
7919;SDS011;18778;47.610;9.776;2023-10-13T10:30:42;5.30;;;2.70;;
7919;SDS011;18778;47.610;9.776;2023-10-13T10:33:09;7.23;;;2.40;;
7919;SDS011;18778;47.610;9.776;2023-10-13T10:35:41;3.83;;;2.20;;
7919;SDS011;18778;47.610;9.776;2023-10-13T10:38:14;5.20;;;2.40;;
7919;SDS011;18778;47.610;9.776;2023-10-13T10:40:53;8.30;;;3.17;;
7919;SDS011;18778;47.610;9.776;2023-10-13T10:43:27;7.13;;;2.97;;
7919;SDS011;18778;47.610;9.776;2023-10-13T10:46:18;11.13;;;3.00;;
7919;SDS011;18778;47.610;9.776;2023-10-13T10:48:52;4.77;;;2.40;;
7919;SDS011;18778;47.610;9.776;2023-10-13T10:51:27;3.90;;;2.17;;
7919;SDS011;18778;47.610;9.776;2023-10-13T10:53:57;4.50;;;2.13;;
7919;SDS011;18778;47.610;9.776;2023-10-13T10:56:24;8.13;;;2.90;;
7919;SDS011;18778;47.610;9.776;2023-10-13T10:58:59;3.93;;;2.07;;
7919;SDS011;18778;47.610;9.776;2023-10-13T11:01:26;5.60;;;2.30;;
7919;SDS011;18778;47.610;9.776;2023-10-13T11:04:07;4.60;;;2.33;;
7919;SDS011;18778;47.610;9.776;2023-10-13T11:06:34;4.47;;;2.33;;
7919;SDS011;18778;47.610;9.776;2023-10-13T11:09:06;5.93;;;2.70;;
7919;SDS011;18778;47.610;9.776;2023-10-13T11:11:43;4.70;;;2.67;;
7919;SDS011;18778;47.610;9.776;2023-10-13T11:14:09;6.80;;;2.20;;
7919;SDS011;18778;47.610;9.776;2023-10-13T11:16:48;6.20;;;2.30;;
7919;SDS011;18778;47.610;9.776;2023-10-13T11:19:18;4.17;;;2.27;;
7919;SDS011;18778;47.610;9.776;2023-10-13T11:21:51;8.87;;;2.50;;
7919;SDS011;18778;47.610;9.776;2023-10-13T11:24:19;9.03;;;2.70;;
7919;SDS011;18778;47.610;9.776;2023-10-13T11:26:46;5.43;;;2.00;;
7919;SDS011;18778;47.610;9.776;2023-10-13T11:29:17;6.55;;;2.15;;
7919;SDS011;18778;47.610;9.776;2023-10-13T11:31:56;7.63;;;2.25;;
7919;SDS011;18778;47.610;9.776;2023-10-13T11:34:25;3.63;;;2.40;;
7919;SDS011;18778;47.610;9.776;2023-10-13T11:37:01;7.65;;;2.40;;
7919;SDS011;18778;47.610;9.776;2023-10-13T11:39:46;4.80;;;2.08;;
7919;SDS011;18778;47.610;9.776;2023-10-13T11:42:12;6.20;;;2.13;;
7919;SDS011;18778;47.610;9.776;2023-10-13T11:44:37;4.72;;;2.30;;
7919;SDS011;18778;47.610;9.776;2023-10-13T11:47:08;5.18;;;2.58;;
7919;SDS011;18778;47.610;9.776;2023-10-13T11:50:00;5.35;;;2.47;;
7919;SDS011;18778;47.610;9.776;2023-10-13T11:52:26;6.15;;;2.42;;
7919;SDS011;18778;47.610;9.776;2023-10-13T11:54:54;4.07;;;2.20;;
7919;SDS011;18778;47.610;9.776;2023-10-13T11:57:19;7.20;;;2.72;;
7919;SDS011;18778;47.610;9.776;2023-10-13T11:59:46;6.13;;;2.10;;
7919;SDS011;18778;47.610;9.776;2023-10-13T12:02:18;3.67;;;2.22;;
7919;SDS011;18778;47.610;9.776;2023-10-13T12:04:50;9.00;;;2.80;;
7919;SDS011;18778;47.610;9.776;2023-10-13T12:07:20;7.25;;;2.42;;
7919;SDS011;18778;47.610;9.776;2023-10-13T12:09:52;4.53;;;2.40;;
7919;SDS011;18778;47.610;9.776;2023-10-13T12:12:21;5.97;;;2.33;;
7919;SDS011;18778;47.610;9.776;2023-10-13T12:14:51;6.43;;;2.30;;
7919;SDS011;18778;47.610;9.776;2023-10-13T12:17:21;5.37;;;2.73;;
7919;SDS011;18778;47.610;9.776;2023-10-13T12:19:56;5.73;;;2.50;;
7919;SDS011;18778;47.610;9.776;2023-10-13T12:22:24;8.27;;;2.40;;
7919;SDS011;18778;47.610;9.776;2023-10-13T12:24:53;3.60;;;2.45;;
7919;SDS011;18778;47.610;9.776;2023-10-13T12:27:22;3.60;;;2.57;;
7919;SDS011;18778;47.610;9.776;2023-10-13T12:30:00;5.05;;;2.60;;
7919;SDS011;18778;47.610;9.776;2023-10-13T12:32:32;8.70;;;2.35;;
7919;SDS011;18778;47.610;9.776;2023-10-13T12:34:59;7.43;;;2.70;;
7919;SDS011;18778;47.610;9.776;2023-10-13T12:37:45;4.55;;;2.55;;
7919;SDS011;18778;47.610;9.776;2023-10-13T12:40:14;6.97;;;2.67;;
7919;SDS011;18778;47.610;9.776;2023-10-13T12:43:00;5.95;;;2.60;;
7919;SDS011;18778;47.610;9.776;2023-10-13T12:45:45;5.47;;;2.20;;
7919;SDS011;18778;47.610;9.776;2023-10-13T12:48:30;6.88;;;2.30;;
7919;SDS011;18778;47.610;9.776;2023-10-13T12:51:16;6.97;;;2.75;;
7919;SDS011;18778;47.610;9.776;2023-10-13T12:53:46;5.97;;;2.40;;
7919;SDS011;18778;47.610;9.776;2023-10-13T12:56:13;8.30;;;2.30;;
7919;SDS011;18778;47.610;9.776;2023-10-13T12:58:39;7.95;;;2.60;;
7919;SDS011;18778;47.610;9.776;2023-10-13T13:01:05;6.60;;;2.35;;
7919;SDS011;18778;47.610;9.776;2023-10-13T13:03:34;6.68;;;2.20;;
7919;SDS011;18778;47.610;9.776;2023-10-13T13:05:59;4.43;;;2.38;;
7919;SDS011;18778;47.610;9.776;2023-10-13T13:08:32;7.35;;;2.30;;
7919;SDS011;18778;47.610;9.776;2023-10-13T13:11:00;5.20;;;2.30;;
7919;SDS011;18778;47.610;9.776;2023-10-13T13:13:26;8.48;;;2.85;;
7919;SDS011;18778;47.610;9.776;2023-10-13T13:15:52;4.70;;;2.22;;
7919;SDS011;18778;47.610;9.776;2023-10-13T13:18:18;6.10;;;2.55;;
7919;SDS011;18778;47.610;9.776;2023-10-13T13:20:44;10.18;;;2.90;;
7919;SDS011;18778;47.610;9.776;2023-10-13T13:23:19;8.63;;;2.92;;
7919;SDS011;18778;47.610;9.776;2023-10-13T13:25:45;6.55;;;2.42;;
7919;SDS011;18778;47.610;9.776;2023-10-13T13:28:11;9.38;;;2.78;;
7919;SDS011;18778;47.610;9.776;2023-10-13T13:30:37;6.53;;;2.90;;
7919;SDS011;18778;47.610;9.776;2023-10-13T13:33:05;6.55;;;2.67;;
7919;SDS011;18778;47.610;9.776;2023-10-13T13:35:38;5.65;;;2.60;;
7919;SDS011;18778;47.610;9.776;2023-10-13T13:38:04;6.43;;;2.63;;
7919;SDS011;18778;47.610;9.776;2023-10-13T13:40:41;6.40;;;2.53;;
7919;SDS011;18778;47.610;9.776;2023-10-13T13:43:13;7.60;;;2.17;;
7919;SDS011;18778;47.610;9.776;2023-10-13T13:45:56;10.38;;;2.70;;
7919;SDS011;18778;47.610;9.776;2023-10-13T13:48:28;4.65;;;2.58;;
7919;SDS011;18778;47.610;9.776;2023-10-13T13:50:54;7.63;;;2.35;;
7919;SDS011;18778;47.610;9.776;2023-10-13T13:53:30;6.25;;;2.70;;
7919;SDS011;18778;47.610;9.776;2023-10-13T13:56:02;6.25;;;2.53;;
7919;SDS011;18778;47.610;9.776;2023-10-13T13:58:29;6.95;;;3.08;;
7919;SDS011;18778;47.610;9.776;2023-10-13T14:01:02;7.47;;;2.90;;
7919;SDS011;18778;47.610;9.776;2023-10-13T14:03:47;9.65;;;2.97;;
7919;SDS011;18778;47.610;9.776;2023-10-13T14:06:24;7.57;;;2.75;;
7919;SDS011;18778;47.610;9.776;2023-10-13T14:08:52;8.52;;;2.40;;
7919;SDS011;18778;47.610;9.776;2023-10-13T14:11:31;5.72;;;2.38;;
7919;SDS011;18778;47.610;9.776;2023-10-13T14:14:04;5.72;;;2.95;;
7919;SDS011;18778;47.610;9.776;2023-10-13T14:16:37;9.00;;;2.60;;
7919;SDS011;18778;47.610;9.776;2023-10-13T14:19:14;5.47;;;2.60;;
7919;SDS011;18778;47.610;9.776;2023-10-13T14:21:53;6.05;;;2.30;;
7919;SDS011;18778;47.610;9.776;2023-10-13T14:24:21;8.60;;;2.50;;
7919;SDS011;18778;47.610;9.776;2023-10-13T14:26:57;7.00;;;2.88;;
7919;SDS011;18778;47.610;9.776;2023-10-13T14:29:36;4.40;;;2.40;;
7919;SDS011;18778;47.610;9.776;2023-10-13T14:32:10;6.38;;;2.80;;
7919;SDS011;18778;47.610;9.776;2023-10-13T14:34:40;6.78;;;2.53;;
7919;SDS011;18778;47.610;9.776;2023-10-13T14:37:07;4.68;;;2.50;;
7919;SDS011;18778;47.610;9.776;2023-10-13T14:39:33;7.78;;;2.60;;
7919;SDS011;18778;47.610;9.776;2023-10-13T14:42:02;5.50;;;2.63;;
7919;SDS011;18778;47.610;9.776;2023-10-13T14:44:30;5.38;;;2.60;;
7919;SDS011;18778;47.610;9.776;2023-10-13T14:46:57;8.13;;;2.60;;
7919;SDS011;18778;47.610;9.776;2023-10-13T14:49:22;5.53;;;2.95;;
7919;SDS011;18778;47.610;9.776;2023-10-13T14:51:48;10.25;;;3.53;;
7919;SDS011;18778;47.610;9.776;2023-10-13T14:54:14;7.32;;;2.38;;
7919;SDS011;18778;47.610;9.776;2023-10-13T14:56:40;7.55;;;3.20;;
7919;SDS011;18778;47.610;9.776;2023-10-13T14:59:09;9.63;;;2.90;;
7919;SDS011;18778;47.610;9.776;2023-10-13T15:01:41;5.97;;;2.60;;
7919;SDS011;18778;47.610;9.776;2023-10-13T15:04:07;3.72;;;2.45;;
7919;SDS011;18778;47.610;9.776;2023-10-13T15:06:33;6.90;;;2.72;;
7919;SDS011;18778;47.610;9.776;2023-10-13T15:08:59;9.23;;;2.60;;
7919;SDS011;18778;47.610;9.776;2023-10-13T15:11:26;6.27;;;3.17;;
7919;SDS011;18778;47.610;9.776;2023-10-13T15:13:52;7.00;;;2.50;;
7919;SDS011;18778;47.610;9.776;2023-10-13T15:16:19;7.77;;;2.93;;
7919;SDS011;18778;47.610;9.776;2023-10-13T15:18:46;5.27;;;2.70;;
7919;SDS011;18778;47.610;9.776;2023-10-13T15:21:19;7.17;;;2.87;;
7919;SDS011;18778;47.610;9.776;2023-10-13T15:23:55;9.53;;;3.10;;
7919;SDS011;18778;47.610;9.776;2023-10-13T15:26:28;4.70;;;2.63;;
7919;SDS011;18778;47.610;9.776;2023-10-13T15:28:54;6.00;;;3.10;;
7919;SDS011;18778;47.610;9.776;2023-10-13T15:31:20;6.57;;;3.17;;
7919;SDS011;18778;47.610;9.776;2023-10-13T15:34:13;5.90;;;2.80;;
7919;SDS011;18778;47.610;9.776;2023-10-13T15:36:39;5.63;;;2.80;;
7919;SDS011;18778;47.610;9.776;2023-10-13T15:39:08;7.57;;;2.93;;
7919;SDS011;18778;47.610;9.776;2023-10-13T15:41:35;8.07;;;3.17;;
7919;SDS011;18778;47.610;9.776;2023-10-13T15:44:03;10.17;;;3.07;;
7919;SDS011;18778;47.610;9.776;2023-10-13T15:46:31;5.33;;;2.80;;
7919;SDS011;18778;47.610;9.776;2023-10-13T15:48:57;8.43;;;2.80;;
7919;SDS011;18778;47.610;9.776;2023-10-13T15:51:24;9.57;;;3.40;;
7919;SDS011;18778;47.610;9.776;2023-10-13T15:53:50;7.17;;;2.80;;
7919;SDS011;18778;47.610;9.776;2023-10-13T15:56:16;5.07;;;2.97;;